createdAt,value
2022-09-16T00:00:08.743Z,1011.782043
2022-09-16T00:01:12.027Z,1011.763428
2022-09-16T00:02:12.338Z,1011.80896
2022-09-16T00:03:16.149Z,1011.763428
2022-09-16T00:04:13.414Z,1011.758667
2022-09-16T00:05:16.216Z,1011.715942
2022-09-16T00:06:10.675Z,1011.734558
2022-09-16T00:07:14.046Z,1011.769775
2022-09-16T00:08:16.163Z,1011.688965
2022-09-16T00:09:14.544Z,1011.657227
2022-09-16T00:10:17.391Z,1011.717651
2022-09-16T00:11:14.190Z,1011.68573
2022-09-16T00:12:18.295Z,1011.677917
2022-09-16T00:14:22.051Z,1011.754089
2022-09-16T00:15:21.459Z,1011.738281
2022-09-16T00:16:20.695Z,1011.703247
2022-09-16T00:17:22.136Z,1011.722473
2022-09-16T00:18:49.342Z,1011.718994
2022-09-16T00:19:28.632Z,1011.689026
2022-09-16T00:20:32.528Z,1011.620911
2022-09-16T00:21:33.512Z,1011.72876
2022-09-16T00:22:31.624Z,1011.717651
2022-09-16T00:24:32.684Z,1011.812744
2022-09-16T00:25:33.876Z,1011.823792
2022-09-16T00:26:39.840Z,1011.85083
2022-09-16T00:27:43.953Z,1011.788696
2022-09-16T00:28:41.387Z,1011.711304
2022-09-16T00:29:41.936Z,1011.76825
2022-09-16T00:30:37.266Z,1011.779358
2022-09-16T00:31:37.972Z,1011.733521
2022-09-16T00:33:47.005Z,1011.792114
2022-09-16T00:34:30.160Z,1011.796936
2022-09-16T00:35:31.916Z,1011.677917
2022-09-16T00:36:31.923Z,1011.793518
2022-09-16T00:37:27.284Z,1011.777771
2022-09-16T00:38:29.400Z,1011.812744
2022-09-16T00:39:28.838Z,1011.796814
2022-09-16T00:40:24.241Z,1011.826904
2022-09-16T00:41:24.158Z,1011.819092
2022-09-16T00:42:21.655Z,1011.787415
2022-09-16T00:44:20.354Z,1011.75238
2022-09-16T00:45:23.555Z,1011.771606
2022-09-16T00:46:19.064Z,1011.758911
2022-09-16T00:47:19.574Z,1011.766968
2022-09-16T00:49:23.923Z,1011.785889
2022-09-16T00:50:18.316Z,1011.774719
2022-09-16T00:51:19.202Z,1011.793884
2022-09-16T00:52:21.300Z,1011.820862
2022-09-16T00:53:15.446Z,1011.720825
2022-09-16T00:54:15.240Z,1011.693909
2022-09-16T00:55:11.029Z,1011.747742
2022-09-16T00:56:12.628Z,1011.796875
2022-09-16T00:57:11.729Z,1011.773315
2022-09-16T00:59:21.907Z,1011.734192
2022-09-16T01:00:20.363Z,1011.898682
2022-09-16T01:01:24.579Z,1011.893982
2022-09-16T01:02:22.775Z,1011.875366
2022-09-16T01:04:23.374Z,1011.855774
2022-09-16T01:05:15.891Z,1011.891174
2022-09-16T01:06:18.475Z,1011.853088
2022-09-16T01:07:11.552Z,1011.810425
2022-09-16T01:08:11.783Z,1011.815063
2022-09-16T01:09:06.673Z,1011.84198
2022-09-16T01:10:07.384Z,1011.853088
2022-09-16T01:11:07.460Z,1011.790955
2022-09-16T01:12:08.075Z,1011.848389
2022-09-16T01:13:15.075Z,1011.826172
2022-09-16T01:14:11.192Z,1011.80188
2022-09-16T01:15:58.206Z,1011.811401
2022-09-16T01:16:40.916Z,1011.820862
2022-09-16T01:18:47.091Z,1011.787415
2022-09-16T01:19:48.686Z,1011.758911
2022-09-16T01:20:47.855Z,1011.789185
2022-09-16T01:21:55.505Z,1011.76532
2022-09-16T01:23:53.366Z,1011.763977
2022-09-16T01:24:56.066Z,1011.767517
2022-09-16T01:25:52.393Z,1011.778687
2022-09-16T01:26:54.107Z,1011.778687
2022-09-16T01:27:50.232Z,1011.859558
2022-09-16T01:28:52.497Z,1011.878113
2022-09-16T01:29:55.197Z,1011.808472
2022-09-16T01:30:51.571Z,1011.844788
2022-09-16T01:31:58.889Z,1011.887512
2022-09-16T01:32:57.013Z,1011.91925
2022-09-16T01:34:03.976Z,1011.880005
2022-09-16T01:35:00.723Z,1011.936707
2022-09-16T01:36:06.927Z,1011.902283
2022-09-16T01:37:11.438Z,1011.902283
2022-09-16T01:38:06.771Z,1011.83728
2022-09-16T01:39:05.102Z,1011.839966
2022-09-16T01:40:07.007Z,1011.832642
2022-09-16T01:41:06.161Z,1011.789856
2022-09-16T01:42:07.903Z,1011.773804
2022-09-16T01:44:14.528Z,1011.827881
2022-09-16T01:45:14.353Z,1011.807373
2022-09-16T01:46:16.020Z,1011.802551
2022-09-16T01:47:26.286Z,1011.781982
2022-09-16T01:49:20.864Z,1011.79425
2022-09-16T01:50:21.071Z,1011.778992
2022-09-16T01:51:21.440Z,1011.763062
2022-09-16T01:52:31.707Z,1011.704529
2022-09-16T01:55:05.873Z,1011.738403
2022-09-16T01:57:16.481Z,1011.736328
2022-09-16T01:57:58.387Z,1011.705078
2022-09-16T01:58:55.631Z,1011.762451
2022-09-16T01:59:53.740Z,1011.702881
2022-09-16T02:00:48.352Z,1011.70282
2022-09-16T02:01:51.881Z,1011.700378
2022-09-16T02:03:50.585Z,1011.672363
2022-09-16T02:04:49.768Z,1011.720581
2022-09-16T02:05:48.051Z,1011.722351
2022-09-16T02:06:46.011Z,1011.631714
2022-09-16T02:08:40.113Z,1011.711304
2022-09-16T02:09:44.587Z,1011.806274
2022-09-16T02:10:37.040Z,1011.73999
2022-09-16T02:11:38.805Z,1011.73999
2022-09-16T02:12:40.567Z,1011.796875
2022-09-16T02:14:45.679Z,1011.698914
2022-09-16T02:15:44.247Z,1011.683105
2022-09-16T02:16:48.137Z,1011.689392
2022-09-16T02:18:46.341Z,1011.758057
2022-09-16T02:19:47.402Z,1011.688293
2022-09-16T02:20:49.670Z,1011.637329
2022-09-16T02:21:45.628Z,1011.680054
2022-09-16T02:22:49.737Z,1011.758057
2022-09-16T02:24:34.209Z,1011.72583
2022-09-16T02:25:36.570Z,1011.64856
2022-09-16T02:26:30.866Z,1011.694092
2022-09-16T02:27:30.226Z,1011.675598
2022-09-16T02:29:26.509Z,1011.687683
2022-09-16T02:30:24.370Z,1011.72583
2022-09-16T02:31:18.699Z,1011.675598
2022-09-16T02:32:16.218Z,1011.705322
2022-09-16T02:33:10.535Z,1011.651367
2022-09-16T02:34:08.789Z,1011.682068
2022-09-16T02:35:05.133Z,1011.719971
2022-09-16T02:35:58.602Z,1011.722839
2022-09-16T02:37:04.154Z,1011.70697
2022-09-16T02:38:00.027Z,1011.711609
2022-09-16T02:40:01.642Z,1011.684387
2022-09-16T02:40:44.178Z,1011.652588
2022-09-16T02:41:45.706Z,1011.640137
2022-09-16T02:42:58.497Z,1011.618408
2022-09-16T02:43:57.627Z,1011.626831
2022-09-16T02:44:58.827Z,1011.62854
2022-09-16T02:45:57.994Z,1011.664795
2022-09-16T02:46:58.652Z,1011.658752
2022-09-16T02:49:04.797Z,1011.55127
2022-09-16T02:49:59.185Z,1011.646301
2022-09-16T02:51:07.324Z,1011.617981
2022-09-16T02:52:05.292Z,1011.713623
2022-09-16T02:54:03.098Z,1011.643921
2022-09-16T02:55:02.150Z,1011.596436
2022-09-16T02:55:56.502Z,1011.668884
2022-09-16T02:56:52.708Z,1011.575867
2022-09-16T02:58:48.305Z,1011.62146
2022-09-16T02:59:51.943Z,1011.501526
2022-09-16T03:00:49.078Z,1011.504761
2022-09-16T03:01:52.360Z,1011.550659
2022-09-16T03:02:47.091Z,1011.566406
2022-09-16T03:03:46.861Z,1011.566406
2022-09-16T03:04:44.029Z,1011.596802
2022-09-16T03:05:45.278Z,1011.545959
2022-09-16T03:06:43.505Z,1011.522278
2022-09-16T03:07:42.146Z,1011.479553
2022-09-16T03:09:36.044Z,1011.463745
2022-09-16T03:10:31.216Z,1011.455688
2022-09-16T03:11:34.398Z,1011.40509
2022-09-16T03:12:26.501Z,1011.477844
2022-09-16T03:14:21.297Z,1011.450989
2022-09-16T03:15:20.096Z,1011.435181
2022-09-16T03:16:19.420Z,1011.419312
2022-09-16T03:17:21.733Z,1011.438416
2022-09-16T03:19:39.398Z,1011.411499
2022-09-16T03:20:20.454Z,1011.462036
2022-09-16T03:21:17.877Z,1011.512939
2022-09-16T03:22:17.753Z,1011.459045
2022-09-16T03:24:17.366Z,1011.446289
2022-09-16T03:25:14.604Z,1011.449585
2022-09-16T03:26:17.691Z,1011.399353
2022-09-16T03:27:13.087Z,1011.402039
2022-09-16T03:28:14.682Z,1011.498718
2022-09-16T03:29:10.007Z,1011.467041
2022-09-16T03:30:10.999Z,1011.470764
2022-09-16T03:31:07.369Z,1011.48175
2022-09-16T03:32:07.644Z,1011.535583
2022-09-16T03:34:07.334Z,1011.48938
2022-09-16T03:35:02.996Z,1011.466003
2022-09-16T03:36:04.918Z,1011.438965
2022-09-16T03:37:02.948Z,1011.441833
2022-09-16T03:39:00.527Z,1011.418457
2022-09-16T03:40:03.733Z,1011.413757
2022-09-16T03:40:59.055Z,1011.432373
2022-09-16T03:42:01.375Z,1011.370972
2022-09-16T03:43:04.681Z,1011.386841
2022-09-16T03:44:03.043Z,1011.409058
2022-09-16T03:44:59.183Z,1011.405518
2022-09-16T03:45:57.288Z,1011.386841
2022-09-16T03:46:57.066Z,1011.340454
2022-09-16T03:47:52.326Z,1011.429565
2022-09-16T03:48:54.440Z,1011.405518
2022-09-16T03:49:56.318Z,1011.435974
2022-09-16T03:50:52.880Z,1011.466187
2022-09-16T03:51:53.349Z,1011.380737
2022-09-16T03:53:53.871Z,1011.420166
2022-09-16T03:55:42.990Z,1011.356262
2022-09-16T03:56:29.535Z,1011.32666
2022-09-16T03:57:30.429Z,1011.385193
2022-09-16T03:58:34.867Z,1011.392639
2022-09-16T03:59:32.420Z,1011.283813
2022-09-16T04:00:36.452Z,1011.386841
2022-09-16T04:01:33.126Z,1011.328247
2022-09-16T04:02:35.044Z,1011.339355
2022-09-16T04:03:33.380Z,1011.331543
2022-09-16T04:04:33.473Z,1011.388489
2022-09-16T04:05:33.577Z,1011.302979
2022-09-16T04:06:35.672Z,1011.360168
2022-09-16T04:07:33.657Z,1011.418762
2022-09-16T04:09:30.758Z,1011.394897
2022-09-16T04:10:31.323Z,1011.314087
2022-09-16T04:11:30.587Z,1011.344177
2022-09-16T04:12:33.744Z,1011.282349
2022-09-16T04:14:33.289Z,1011.269958
2022-09-16T04:15:36.694Z,1011.326782
2022-09-16T04:16:34.819Z,1011.26825
2022-09-16T04:17:33.829Z,1011.322083
2022-09-16T04:19:33.656Z,1011.30957
2022-09-16T04:20:37.133Z,1011.374512
2022-09-16T04:21:31.747Z,1011.293701
2022-09-16T04:22:34.710Z,1011.336487
2022-09-16T04:24:35.832Z,1011.325378
2022-09-16T04:25:37.220Z,1011.282654
2022-09-16T04:26:40.171Z,1011.320679
2022-09-16T04:27:34.450Z,1011.255676
2022-09-16T04:28:36.569Z,1011.307861
2022-09-16T04:29:39.821Z,1011.293579
2022-09-16T04:30:38.382Z,1011.293579
2022-09-16T04:31:54.484Z,1011.336243
2022-09-16T04:32:35.902Z,1011.27948
2022-09-16T04:34:34.303Z,1011.272949
2022-09-16T04:35:29.518Z,1011.246033
2022-09-16T04:36:30.772Z,1011.187439
2022-09-16T04:37:27.276Z,1011.306274
2022-09-16T04:38:28.129Z,1011.322144
2022-09-16T04:39:23.587Z,1011.274658
2022-09-16T04:40:27.681Z,1011.328491
2022-09-16T04:41:22.800Z,1011.312683
2022-09-16T04:42:28.337Z,1011.269958
2022-09-16T04:44:25.686Z,1011.239624
2022-09-16T04:45:22.754Z,1011.285706
2022-09-16T04:46:22.602Z,1011.27771
2022-09-16T04:47:18.001Z,1011.261902
2022-09-16T04:49:23.311Z,1011.250793
2022-09-16T04:50:27.009Z,1011.261902
2022-09-16T04:51:30.328Z,1011.238281
2022-09-16T04:52:27.932Z,1011.254089
2022-09-16T04:53:27.222Z,1011.353699
2022-09-16T04:54:25.931Z,1011.26825
2022-09-16T04:55:26.781Z,1011.322083
2022-09-16T04:56:32.874Z,1011.341309
2022-09-16T04:57:35.817Z,1011.325378
2022-09-16T04:58:30.440Z,1011.356995
2022-09-16T04:59:29.103Z,1011.322083
2022-09-16T05:00:28.997Z,1011.384033
2022-09-16T05:01:25.767Z,1011.402893
2022-09-16T05:02:34.348Z,1011.384033
2022-09-16T05:04:30.679Z,1011.371704
2022-09-16T05:06:19.722Z,1011.269958
2022-09-16T05:06:20.804Z,1011.269958
2022-09-16T05:06:55.935Z,1011.315796
2022-09-16T05:09:02.801Z,1011.315491
2022-09-16T05:09:58.199Z,1011.356262
2022-09-16T05:10:57.694Z,1011.332947
2022-09-16T05:11:53.352Z,1011.409058
2022-09-16T05:13:48.573Z,1011.312378
2022-09-16T05:14:54.594Z,1011.315796
2022-09-16T05:15:51.297Z,1011.345642
2022-09-16T05:16:52.868Z,1011.295227
2022-09-16T05:18:50.764Z,1011.358582
2022-09-16T05:19:46.774Z,1011.409058
2022-09-16T05:20:47.004Z,1011.328247
2022-09-16T05:21:42.198Z,1011.304749
2022-09-16T05:22:42.154Z,1011.350464
2022-09-16T05:23:37.488Z,1011.296631
2022-09-16T05:24:44.491Z,1011.291748
2022-09-16T05:25:41.453Z,1011.287109
2022-09-16T05:26:41.834Z,1011.306274
2022-09-16T05:27:37.021Z,1011.360168
2022-09-16T05:29:36.947Z,1011.352173
2022-09-16T05:30:35.788Z,1011.306274
2022-09-16T05:31:30.273Z,1011.244385
2022-09-16T05:32:30.241Z,1011.263489
2022-09-16T05:34:22.267Z,1011.317444
2022-09-16T05:35:22.997Z,1011.293579
2022-09-16T05:36:17.289Z,1011.385437
2022-09-16T05:37:27.051Z,1011.323792
2022-09-16T05:39:24.867Z,1011.385437
2022-09-16T05:40:16.416Z,1011.312683
2022-09-16T05:41:19.264Z,1011.363098
2022-09-16T05:42:11.880Z,1011.344177
2022-09-16T05:44:14.172Z,1011.402954
2022-09-16T05:45:10.665Z,1011.383789
2022-09-16T05:46:57.623Z,1011.428162
2022-09-16T05:47:40.916Z,1011.437073
2022-09-16T05:49:47.305Z,1011.364624
2022-09-16T05:50:48.242Z,1011.386841
2022-09-16T05:51:46.293Z,1011.350464
2022-09-16T05:52:44.014Z,1011.396606
2022-09-16T05:53:46.311Z,1011.388489
2022-09-16T05:54:46.971Z,1011.414124
2022-09-16T05:55:43.457Z,1011.459839
2022-09-16T05:56:44.870Z,1011.463135
2022-09-16T05:57:42.036Z,1011.382324
2022-09-16T05:58:44.110Z,1011.436218
2022-09-16T05:59:46.355Z,1011.3396
2022-09-16T06:00:42.801Z,1011.374268
2022-09-16T06:01:44.637Z,1011.366516
2022-09-16T06:02:42.020Z,1011.282349
2022-09-16T06:04:41.552Z,1011.390076
2022-09-16T06:05:45.798Z,1011.443909
2022-09-16T06:06:40.605Z,1011.416992
2022-09-16T06:07:42.269Z,1011.394897
2022-09-16T06:09:41.550Z,1011.379089
2022-09-16T06:10:39.519Z,1011.336243
2022-09-16T06:11:39.544Z,1011.436218
2022-09-16T06:12:41.661Z,1011.371277
2022-09-16T06:14:39.958Z,1011.363098
2022-09-16T06:15:38.751Z,1011.390076
2022-09-16T06:16:42.776Z,1011.363098
2022-09-16T06:17:37.623Z,1011.317444
2022-09-16T06:18:44.954Z,1011.36792
2022-09-16T06:19:38.622Z,1011.402954
2022-09-16T06:20:38.931Z,1011.448792
2022-09-16T06:22:42.493Z,1011.40741
2022-09-16T06:24:21.135Z,1011.40686
2022-09-16T06:25:21.914Z,1011.442078
2022-09-16T06:26:16.372Z,1011.42627
2022-09-16T06:27:16.150Z,1011.448486
2022-09-16T06:28:11.337Z,1011.440063
2022-09-16T06:29:11.139Z,1011.462402
2022-09-16T06:30:06.439Z,1011.495667
2022-09-16T06:31:06.482Z,1011.603455
2022-09-16T06:32:00.911Z,1011.517883
2022-09-16T06:33:02.741Z,1011.515137
2022-09-16T06:33:57.972Z,1011.479858
2022-09-16T06:34:58.120Z,1011.410156
2022-09-16T06:35:53.375Z,1011.510376
2022-09-16T06:36:52.782Z,1011.502075
2022-09-16T06:37:48.101Z,1011.46405
2022-09-16T06:38:48.470Z,1011.499268
2022-09-16T06:39:48.640Z,1011.440796
2022-09-16T06:40:41.043Z,1011.456482
2022-09-16T06:41:47.934Z,1011.440796
2022-09-16T06:42:42.187Z,1011.461182
2022-09-16T06:44:44.837Z,1011.437073
2022-09-16T06:45:44.621Z,1011.413757
2022-09-16T06:46:40.004Z,1011.432373
2022-09-16T06:47:41.950Z,1011.413757
2022-09-16T06:48:38.451Z,1011.429565
2022-09-16T06:49:41.237Z,1011.467651
2022-09-16T06:50:33.896Z,1011.394287
2022-09-16T06:51:31.000Z,1011.448181
2022-09-16T06:52:30.554Z,1011.432373
2022-09-16T06:54:24.281Z,1011.459351
2022-09-16T06:55:28.602Z,1011.508911
2022-09-16T06:56:31.400Z,1011.470398
2022-09-16T06:57:23.497Z,1011.500977
2022-09-16T06:59:20.133Z,1011.467651
2022-09-16T07:01:04.361Z,1011.435486
2022-09-16T07:01:48.413Z,1011.473267
2022-09-16T07:02:46.746Z,1011.394043
2022-09-16T07:03:45.793Z,1011.409912
2022-09-16T07:04:41.059Z,1011.412842
2022-09-16T07:05:39.638Z,1011.485962
2022-09-16T07:07:08.134Z,1011.427368
2022-09-16T07:07:34.804Z,1011.455688
2022-09-16T07:09:27.501Z,1011.450928
2022-09-16T07:10:27.057Z,1011.461975
2022-09-16T07:11:22.652Z,1011.558716
2022-09-16T07:12:23.456Z,1011.523682
2022-09-16T07:14:18.356Z,1011.569763
2022-09-16T07:15:13.682Z,1011.545959
2022-09-16T07:16:14.503Z,1011.580994
2022-09-16T07:17:09.662Z,1011.554077
2022-09-16T07:18:11.042Z,1011.534851
2022-09-16T07:19:04.669Z,1011.515991
2022-09-16T07:20:05.653Z,1011.588684
2022-09-16T07:21:00.431Z,1011.542847
2022-09-16T07:22:00.341Z,1011.554077
2022-09-16T07:22:59.440Z,1011.569763
2022-09-16T07:23:54.570Z,1011.63147
2022-09-16T07:24:56.235Z,1011.628357
2022-09-16T07:25:51.188Z,1011.644287
2022-09-16T07:26:53.197Z,1011.645691
2022-09-16T07:27:45.644Z,1011.580566
2022-09-16T07:29:44.487Z,1011.630798
2022-09-16T07:30:37.190Z,1011.612183
2022-09-16T07:31:39.203Z,1011.697815
2022-09-16T07:33:23.271Z,1011.701843
2022-09-16T07:34:04.432Z,1011.565308
2022-09-16T07:35:00.318Z,1011.601929
2022-09-16T07:35:59.995Z,1011.575012
2022-09-16T07:36:55.261Z,1011.620911
2022-09-16T07:38:50.239Z,1011.731934
2022-09-16T07:39:50.960Z,1011.654053
2022-09-16T07:40:46.121Z,1011.754089
2022-09-16T07:41:47.609Z,1011.603516
2022-09-16T07:42:40.047Z,1011.5495
2022-09-16T07:43:44.245Z,1011.68103
2022-09-16T07:44:38.753Z,1011.662109
2022-09-16T07:45:36.293Z,1011.627075
2022-09-16T07:46:38.811Z,1011.716064
2022-09-16T07:47:31.129Z,1011.600159
2022-09-16T07:48:35.079Z,1011.631714
2022-09-16T07:49:30.401Z,1011.660034
2022-09-16T07:50:22.865Z,1011.673157
2022-09-16T07:51:25.734Z,1011.663086
2022-09-16T07:52:18.185Z,1011.711792
2022-09-16T07:54:13.709Z,1011.673462
2022-09-16T07:55:16.288Z,1011.670166
2022-09-16T07:56:09.022Z,1011.712891
2022-09-16T07:57:11.288Z,1011.60144
2022-09-16T07:58:03.656Z,1011.655396
2022-09-16T07:59:03.575Z,1011.659912
2022-09-16T07:59:58.856Z,1011.706421
2022-09-16T08:01:04.005Z,1011.69165
2022-09-16T08:01:05.167Z,1011.69165
2022-09-16T08:01:57.602Z,1011.720581
2022-09-16T08:03:55.925Z,1011.748474
2022-09-16T08:04:51.066Z,1011.705688
2022-09-16T08:05:50.580Z,1011.770752
2022-09-16T08:06:45.878Z,1011.817261
2022-09-16T08:07:43.246Z,1011.674011
2022-09-16T08:08:42.881Z,1011.736328
2022-09-16T08:10:07.744Z,1011.794983
2022-09-16T08:10:48.165Z,1011.749695
2022-09-16T08:11:47.271Z,1011.733704
2022-09-16T08:12:46.641Z,1011.715942
2022-09-16T08:13:43.196Z,1011.720764
2022-09-16T08:14:45.201Z,1011.769348
2022-09-16T08:15:42.131Z,1011.698669
2022-09-16T08:16:43.466Z,1011.636169
2022-09-16T08:17:39.909Z,1011.661438
2022-09-16T08:19:38.417Z,1011.723999
2022-09-16T08:20:43.154Z,1011.734131
2022-09-16T08:21:36.831Z,1011.717651
2022-09-16T08:22:36.649Z,1011.717651
2022-09-16T08:23:38.213Z,1011.757019
2022-09-16T08:24:35.575Z,1011.770935
2022-09-16T08:25:37.720Z,1011.781616
2022-09-16T08:26:35.141Z,1011.722107
2022-09-16T08:27:36.266Z,1011.740784
2022-09-16T08:28:40.162Z,1011.751099
2022-09-16T08:28:51.063Z,1011.751099
2022-09-16T08:29:04.670Z,1011.751099
2022-09-16T08:29:34.775Z,1011.690369
2022-09-16T08:30:31.354Z,1011.704224
2022-09-16T08:31:34.184Z,1011.778687
2022-09-16T08:32:30.632Z,1011.770386
2022-09-16T08:33:32.091Z,1011.720154
2022-09-16T08:34:29.430Z,1011.73877
2022-09-16T08:35:31.067Z,1011.782776
2022-09-16T08:36:27.182Z,1011.814392
2022-09-16T08:37:29.927Z,1011.790771
2022-09-16T08:38:24.121Z,1011.759033
2022-09-16T08:39:26.750Z,1011.762939
2022-09-16T08:41:20.368Z,1011.75647
2022-09-16T08:42:15.630Z,1011.852478
2022-09-16T08:44:14.509Z,1011.849854
2022-09-16T08:45:10.247Z,1011.883484
2022-09-16T08:46:13.622Z,1011.833008
2022-09-16T08:47:07.189Z,1011.891479
2022-09-16T08:48:10.461Z,1011.903992
2022-09-16T08:49:04.155Z,1011.924377
2022-09-16T08:50:43.445Z,1011.871826
2022-09-16T08:51:42.639Z,1011.90863
2022-09-16T08:52:39.934Z,1011.868042
2022-09-16T08:55:19.085Z,1011.814331
2022-09-16T08:57:30.365Z,1011.845032
2022-09-16T08:59:05.514Z,1011.789978
2022-09-16T09:00:04.263Z,1011.845459
2022-09-16T09:00:57.974Z,1011.856995
2022-09-16T09:01:57.257Z,1011.873047
2022-09-16T09:02:50.821Z,1011.854004
2022-09-16T09:03:48.888Z,1011.870789
2022-09-16T09:04:42.043Z,1011.779114
2022-09-16T09:05:41.549Z,1011.849854
2022-09-16T09:06:36.782Z,1011.885742
2022-09-16T09:07:36.980Z,1011.945496
2022-09-16T09:09:26.602Z,1011.958679
2022-09-16T09:10:20.763Z,1011.922485
2022-09-16T09:11:15.714Z,1011.910034
2022-09-16T09:12:16.862Z,1011.913818
2022-09-16T09:13:08.638Z,1011.940796
2022-09-16T09:14:06.186Z,1011.952881
2022-09-16T09:15:01.051Z,1011.949524
2022-09-16T09:15:58.442Z,1011.887573
2022-09-16T09:16:55.307Z,1011.937073
2022-09-16T09:17:48.650Z,1011.948303
2022-09-16T09:19:39.837Z,1011.980957
2022-09-16T09:20:37.789Z,1011.949463
2022-09-16T09:21:30.809Z,1011.963562
2022-09-16T09:22:27.714Z,1011.924377
2022-09-16T09:24:18.935Z,1011.969177
2022-09-16T09:25:19.380Z,1011.972534
2022-09-16T09:26:10.545Z,1011.991516
2022-09-16T09:27:11.226Z,1011.967957
2022-09-16T09:28:02.287Z,1011.956726
2022-09-16T09:29:00.153Z,1011.960022
2022-09-16T09:29:53.527Z,1011.952209
2022-09-16T09:30:51.251Z,1011.912537
2022-09-16T09:31:44.732Z,1011.954407
2022-09-16T09:32:49.424Z,1012.046631
2022-09-16T09:34:24.373Z,1012.006165
2022-09-16T09:35:25.683Z,1011.931885
2022-09-16T09:36:18.059Z,1011.893372
2022-09-16T09:37:19.976Z,1011.900085
2022-09-16T09:38:12.598Z,1011.937622
2022-09-16T09:39:51.607Z,1011.819336
2022-09-16T09:42:04.182Z,1011.88385
2022-09-16T09:42:45.407Z,1011.809021
2022-09-16T09:44:44.512Z,1011.771912
2022-09-16T09:45:46.118Z,1011.674072
2022-09-16T09:46:42.440Z,1011.733398
2022-09-16T09:47:41.075Z,1011.644775
2022-09-16T09:48:42.267Z,1011.691589
2022-09-16T09:49:38.595Z,1011.64209
2022-09-16T09:50:38.819Z,1011.584656
2022-09-16T09:51:35.263Z,1011.557556
2022-09-16T09:52:36.470Z,1011.643372
2022-09-16T09:54:31.338Z,1011.621887
2022-09-16T09:55:31.553Z,1011.610596
2022-09-16T09:56:26.920Z,1011.656921
2022-09-16T09:57:26.651Z,1011.632202
2022-09-16T09:58:21.993Z,1011.615051
2022-09-16T09:59:19.457Z,1011.668152
2022-09-16T10:00:19.402Z,1011.694458
2022-09-16T10:01:14.369Z,1011.692871
2022-09-16T10:02:12.048Z,1011.637634
2022-09-16T10:03:14.824Z,1011.701965
2022-09-16T10:04:10.202Z,1011.70874
2022-09-16T10:05:07.799Z,1011.715393
2022-09-16T10:06:07.567Z,1011.613953
2022-09-16T10:08:58.005Z,1011.712952
2022-09-16T10:09:55.924Z,1011.693726
2022-09-16T10:11:22.790Z,1011.626221
2022-09-16T10:13:06.447Z,1011.559875
2022-09-16T10:14:42.401Z,1011.690796
2022-09-16T10:15:41.957Z,1011.616272
2022-09-16T10:16:35.924Z,1011.65332
2022-09-16T10:17:34.650Z,1011.697327
2022-09-16T10:18:31.974Z,1011.714294
2022-09-16T10:19:30.894Z,1011.71637
2022-09-16T10:20:26.116Z,1011.831238
2022-09-16T10:21:26.051Z,1011.752197
2022-09-16T10:22:20.261Z,1011.724121
2022-09-16T10:23:22.902Z,1011.804504
2022-09-16T10:24:20.267Z,1011.691711
2022-09-16T10:25:11.857Z,1011.69928
2022-09-16T10:26:13.404Z,1011.737427
2022-09-16T10:27:06.987Z,1011.737427
2022-09-16T10:28:05.254Z,1011.691711
2022-09-16T10:29:00.580Z,1011.653442
2022-09-16T10:29:55.958Z,1011.645142
2022-09-16T10:30:55.995Z,1011.680542
2022-09-16T10:31:50.666Z,1011.645142
2022-09-16T10:32:49.105Z,1011.648987
2022-09-16T10:33:44.523Z,1011.648987
2022-09-16T10:34:48.484Z,1011.663086
2022-09-16T10:35:42.728Z,1011.671326
2022-09-16T10:36:39.876Z,1011.693848
2022-09-16T10:37:35.465Z,1011.677063
2022-09-16T10:38:34.008Z,1011.68811
2022-09-16T10:39:33.869Z,1011.58667
2022-09-16T10:40:26.293Z,1011.594543
2022-09-16T10:41:27.537Z,1011.555176
2022-09-16T10:42:20.922Z,1011.559631
2022-09-16T10:43:18.895Z,1011.557556
2022-09-16T10:44:17.186Z,1011.615662
2022-09-16T10:45:50.455Z,1011.592712
2022-09-16T10:46:46.246Z,1011.595886
2022-09-16T10:47:46.828Z,1011.487732
2022-09-16T10:49:23.718Z,1011.626221
2022-09-16T10:50:03.724Z,1011.526062
2022-09-16T10:51:01.904Z,1011.610413
2022-09-16T10:52:00.713Z,1011.604675
2022-09-16T10:52:56.272Z,1011.615234
2022-09-16T10:54:50.860Z,1011.554138
2022-09-16T10:55:49.934Z,1011.595886
2022-09-16T10:56:42.473Z,1011.586792
2022-09-16T10:57:42.253Z,1011.636292
2022-09-16T10:58:37.992Z,1011.561829
2022-09-16T10:59:37.653Z,1011.568481
2022-09-16T11:00:32.202Z,1011.518127
2022-09-16T11:01:32.687Z,1011.648743
2022-09-16T11:02:26.579Z,1011.536011
2022-09-16T11:03:28.580Z,1011.565979
2022-09-16T11:04:20.933Z,1011.55011
2022-09-16T11:05:25.540Z,1011.612488
2022-09-16T11:06:18.312Z,1011.453247
2022-09-16T11:07:13.386Z,1011.536011
2022-09-16T11:09:08.417Z,1011.454956
2022-09-16T11:10:10.976Z,1011.459412
2022-09-16T11:11:04.913Z,1011.467041
2022-09-16T11:12:05.381Z,1011.452881
2022-09-16T11:13:03.482Z,1011.449036
2022-09-16T11:13:56.121Z,1011.504272
2022-09-16T11:14:59.026Z,1011.570923
2022-09-16T11:15:51.587Z,1011.486389
2022-09-16T11:16:51.411Z,1011.494324
2022-09-16T11:17:46.828Z,1011.490845
2022-09-16T11:18:50.702Z,1011.444824
2022-09-16T11:18:53.030Z,1011.444824
2022-09-16T11:19:42.243Z,1011.387329
2022-09-16T11:20:45.993Z,1011.34906
2022-09-16T11:21:41.021Z,1011.461792
2022-09-16T11:22:35.793Z,1011.361084
2022-09-16T11:23:38.021Z,1011.461792
2022-09-16T11:24:30.851Z,1011.504578
2022-09-16T11:25:33.050Z,1011.430908
2022-09-16T11:26:56.804Z,1011.458008
2022-09-16T11:27:37.071Z,1011.509155
2022-09-16T11:28:36.376Z,1011.52124
2022-09-16T11:29:37.693Z,1011.543579
2022-09-16T11:30:33.127Z,1011.547485
2022-09-16T11:31:32.521Z,1011.515869
2022-09-16T11:32:28.460Z,1011.518066
2022-09-16T11:33:28.096Z,1011.494324
2022-09-16T11:34:24.127Z,1011.532776
2022-09-16T11:35:23.759Z,1011.636292
2022-09-16T11:36:20.248Z,1011.639465
2022-09-16T11:37:22.237Z,1011.669922
2022-09-16T11:39:14.410Z,1011.727234
2022-09-16T11:40:09.494Z,1011.684326
2022-09-16T11:41:08.963Z,1011.795105
2022-09-16T11:42:04.689Z,1011.818359
2022-09-16T11:43:04.645Z,1011.734436
2022-09-16T11:44:00.023Z,1011.80426
2022-09-16T11:44:59.632Z,1011.775635
2022-09-16T11:45:55.870Z,1011.750549
2022-09-16T11:46:57.023Z,1011.745911
2022-09-16T11:47:52.480Z,1011.779663
2022-09-16T11:49:48.983Z,1011.87915
2022-09-16T11:50:52.309Z,1011.828186
2022-09-16T11:51:44.948Z,1011.828186
2022-09-16T11:52:44.295Z,1011.842896
2022-09-16T11:53:45.542Z,1011.888855
2022-09-16T11:54:40.173Z,1011.752625
2022-09-16T11:55:40.102Z,1011.755859